sensor_id;sensor_type;location;lat;lon;timestamp;pressure;altitude;pressure_sealevel;temperature;humidity
71476;BME280;59286;59.274;17.974;2022-11-23T00:02:13;101061.69;;;1.27;85.71
71476;BME280;59286;59.274;17.974;2022-11-23T00:04:38;101055.38;;;1.23;85.29
71476;BME280;59286;59.274;17.974;2022-11-23T00:07:03;101046.28;;;1.20;85.25
71476;BME280;59286;59.274;17.974;2022-11-23T00:09:29;101062.09;;;1.24;85.21
71476;BME280;59286;59.274;17.974;2022-11-23T00:11:54;101044.16;;;1.17;85.26
71476;BME280;59286;59.274;17.974;2022-11-23T00:14:19;101068.41;;;1.28;85.38
71476;BME280;59286;59.274;17.974;2022-11-23T00:16:45;101057.75;;;1.24;85.72
71476;BME280;59286;59.274;17.974;2022-11-23T00:19:10;101059.41;;;1.19;85.59
71476;BME280;59286;59.274;17.974;2022-11-23T00:21:35;101067.38;;;1.17;84.92
71476;BME280;59286;59.274;17.974;2022-11-23T00:24:01;101079.03;;;1.20;84.84
71476;BME280;59286;59.274;17.974;2022-11-23T00:26:26;101072.09;;;1.20;85.22
71476;BME280;59286;59.274;17.974;2022-11-23T00:28:52;101077.72;;;1.17;85.20
71476;BME280;59286;59.274;17.974;2022-11-23T00:31:18;101072.66;;;1.22;85.59
71476;BME280;59286;59.274;17.974;2022-11-23T00:33:52;101086.78;;;1.20;85.75
71476;BME280;59286;59.274;17.974;2022-11-23T00:36:19;101079.25;;;1.18;85.64
71476;BME280;59286;59.274;17.974;2022-11-23T00:38:45;101087.34;;;1.22;84.97
71476;BME280;59286;59.274;17.974;2022-11-23T00:41:14;101071.53;;;1.18;85.05
71476;BME280;59286;59.274;17.974;2022-11-23T00:43:41;101068.25;;;1.11;85.80
71476;BME280;59286;59.274;17.974;2022-11-23T00:46:08;101077.72;;;1.17;85.93
71476;BME280;59286;59.274;17.974;2022-11-23T00:48:35;101071.97;;;1.15;86.21
71476;BME280;59286;59.274;17.974;2022-11-23T00:51:02;101073.97;;;1.13;85.24
71476;BME280;59286;59.274;17.974;2022-11-23T00:53:28;101077.38;;;1.14;84.64
71476;BME280;59286;59.274;17.974;2022-11-23T00:55:54;101073.41;;;1.11;84.46
71476;BME280;59286;59.274;17.974;2022-11-23T00:58:21;101075.34;;;1.16;83.66
71476;BME280;59286;59.274;17.974;2022-11-23T01:00:46;101070.03;;;1.11;83.33
71476;BME280;59286;59.274;17.974;2022-11-23T01:03:13;101066.59;;;1.17;83.56
71476;BME280;59286;59.274;17.974;2022-11-23T01:05:38;101058.50;;;1.13;83.11
71476;BME280;59286;59.274;17.974;2022-11-23T01:08:04;101061.19;;;1.18;82.60
71476;BME280;59286;59.274;17.974;2022-11-23T01:10:30;101052.53;;;1.13;82.79
71476;BME280;59286;59.274;17.974;2022-11-23T01:12:56;101056.16;;;1.23;82.63
71476;BME280;59286;59.274;17.974;2022-11-23T01:15:21;101049.44;;;1.22;82.75
71476;BME280;59286;59.274;17.974;2022-11-23T01:17:46;101044.38;;;1.16;82.94
71476;BME280;59286;59.274;17.974;2022-11-23T01:20:12;101031.44;;;1.04;83.23
71476;BME280;59286;59.274;17.974;2022-11-23T01:22:37;101045.13;;;1.16;83.27
71476;BME280;59286;59.274;17.974;2022-11-23T01:25:03;101049.44;;;1.22;83.19
71476;BME280;59286;59.274;17.974;2022-11-23T01:27:28;101052.31;;;1.14;82.82
71476;BME280;59286;59.274;17.974;2022-11-23T01:29:54;101054.25;;;1.19;83.30
71476;BME280;59286;59.274;17.974;2022-11-23T01:32:19;101057.63;;;1.19;83.37
71476;BME280;59286;59.274;17.974;2022-11-23T01:34:44;101046.81;;;1.11;83.66
71476;BME280;59286;59.274;17.974;2022-11-23T01:37:10;101059.28;;;1.25;83.60
71476;BME280;59286;59.274;17.974;2022-11-23T01:39:35;101055.28;;;1.29;83.32
71476;BME280;59286;59.274;17.974;2022-11-23T01:42:01;101063.59;;;1.31;83.64
71476;BME280;59286;59.274;17.974;2022-11-23T01:44:32;101058.41;;;1.31;83.96
71476;BME280;59286;59.274;17.974;2022-11-23T01:47:00;101050.91;;;1.30;83.55
71476;BME280;59286;59.274;17.974;2022-11-23T01:49:32;101059.44;;;1.30;83.53
71476;BME280;59286;59.274;17.974;2022-11-23T01:52:04;101060.56;;;1.34;83.39
71476;BME280;59286;59.274;17.974;2022-11-23T01:54:35;101050.91;;;1.30;83.56
71476;BME280;59286;59.274;17.974;2022-11-23T01:57:06;101064.16;;;1.33;83.39
71476;BME280;59286;59.274;17.974;2022-11-23T01:59:34;101061.56;;;1.33;83.79
71476;BME280;59286;59.274;17.974;2022-11-23T02:02:00;101052.03;;;1.34;83.83
71476;BME280;59286;59.274;17.974;2022-11-23T02:04:30;101053.81;;;1.33;83.49
71476;BME280;59286;59.274;17.974;2022-11-23T02:06:59;101056.41;;;1.33;83.98
71476;BME280;59286;59.274;17.974;2022-11-23T02:09:25;101045.97;;;1.28;84.45
71476;BME280;59286;59.274;17.974;2022-11-23T02:11:51;101051.69;;;1.30;84.70
71476;BME280;59286;59.274;17.974;2022-11-23T02:14:16;101048.31;;;1.30;85.17
71476;BME280;59286;59.274;17.974;2022-11-23T02:16:42;101043.25;;;1.23;84.97
71476;BME280;59286;59.274;17.974;2022-11-23T02:19:17;101039.22;;;1.27;84.77
71476;BME280;59286;59.274;17.974;2022-11-23T02:21:45;101041.38;;;1.30;84.45
71476;BME280;59286;59.274;17.974;2022-11-23T02:24:27;101047.78;;;1.39;84.64
71476;BME280;59286;59.274;17.974;2022-11-23T02:26:55;101042.59;;;1.39;84.91
71476;BME280;59286;59.274;17.974;2022-11-23T02:29:23;101038.66;;;1.37;84.97
71476;BME280;59286;59.274;17.974;2022-11-23T02:31:49;101029.78;;;1.33;85.42
71476;BME280;59286;59.274;17.974;2022-11-23T02:34:16;101033.72;;;1.35;84.78
71476;BME280;59286;59.274;17.974;2022-11-23T02:36:52;101038.78;;;1.30;85.50
71476;BME280;59286;59.274;17.974;2022-11-23T02:39:28;101035.28;;;1.36;85.51
71476;BME280;59286;59.274;17.974;2022-11-23T02:41:54;101031.16;;;1.35;85.56
71476;BME280;59286;59.274;17.974;2022-11-23T02:47:09;101025.75;;;1.37;85.68
71476;BME280;59286;59.274;17.974;2022-11-23T02:49:35;101019.13;;;1.29;85.52
71476;BME280;59286;59.274;17.974;2022-11-23T02:52:01;101019.38;;;1.39;84.94
71476;BME280;59286;59.274;17.974;2022-11-23T02:54:27;100995.31;;;1.27;85.47
71476;BME280;59286;59.274;17.974;2022-11-23T02:56:52;101006.88;;;1.36;84.88
71476;BME280;59286;59.274;17.974;2022-11-23T02:59:18;101020.28;;;1.45;84.66
71476;BME280;59286;59.274;17.974;2022-11-23T03:01:43;101024.06;;;1.42;84.01
71476;BME280;59286;59.274;17.974;2022-11-23T03:04:09;101013.88;;;1.36;84.08
71476;BME280;59286;59.274;17.974;2022-11-23T03:06:35;101017.34;;;1.41;84.02
71476;BME280;59286;59.274;17.974;2022-11-23T03:09:00;101013.75;;;1.42;83.96
71476;BME280;59286;59.274;17.974;2022-11-23T03:11:25;101023.66;;;1.45;83.72
71476;BME280;59286;59.274;17.974;2022-11-23T03:13:51;101012.19;;;1.41;83.16
71476;BME280;59286;59.274;17.974;2022-11-23T03:16:16;101028.69;;;1.52;83.80
71476;BME280;59286;59.274;17.974;2022-11-23T03:18:42;101002.63;;;1.42;82.82
71476;BME280;59286;59.274;17.974;2022-11-23T03:21:07;101033.75;;;1.58;83.08
71476;BME280;59286;59.274;17.974;2022-11-23T03:23:34;101029.50;;;1.52;82.80
71476;BME280;59286;59.274;17.974;2022-11-23T03:26:00;101037.91;;;1.59;83.04
71476;BME280;59286;59.274;17.974;2022-11-23T03:28:26;101028.13;;;1.61;83.41
71476;BME280;59286;59.274;17.974;2022-11-23T03:30:52;101019.38;;;1.51;82.78
71476;BME280;59286;59.274;17.974;2022-11-23T03:33:17;101023.88;;;1.55;82.64
71476;BME280;59286;59.274;17.974;2022-11-23T03:35:43;101021.75;;;1.52;82.34
71476;BME280;59286;59.274;17.974;2022-11-23T03:38:09;101015.56;;;1.53;83.22
71476;BME280;59286;59.274;17.974;2022-11-23T03:40:34;101029.81;;;1.56;82.27
71476;BME280;59286;59.274;17.974;2022-11-23T03:42:59;101005.69;;;1.50;83.21
71476;BME280;59286;59.274;17.974;2022-11-23T03:45:25;101020.28;;;1.56;82.49
71476;BME280;59286;59.274;17.974;2022-11-23T03:47:50;100989.50;;;1.43;82.32
71476;BME280;59286;59.274;17.974;2022-11-23T03:50:16;100999.50;;;1.51;82.59
71476;BME280;59286;59.274;17.974;2022-11-23T03:52:41;100998.38;;;1.47;82.34
71476;BME280;59286;59.274;17.974;2022-11-23T03:55:07;101004.44;;;1.53;82.05
71476;BME280;59286;59.274;17.974;2022-11-23T03:57:32;100994.22;;;1.46;82.15
71476;BME280;59286;59.274;17.974;2022-11-23T03:59:58;101005.69;;;1.50;81.93
71476;BME280;59286;59.274;17.974;2022-11-23T04:02:23;101006.25;;;1.52;81.30
71476;BME280;59286;59.274;17.974;2022-11-23T04:04:49;101008.38;;;1.55;81.86
71476;BME280;59286;59.274;17.974;2022-11-23T04:07:14;101010.53;;;1.58;81.76
71476;BME280;59286;59.274;17.974;2022-11-23T04:09:40;100996.34;;;1.49;81.53
71476;BME280;59286;59.274;17.974;2022-11-23T04:12:05;101013.09;;;1.58;81.50
71476;BME280;59286;59.274;17.974;2022-11-23T04:14:31;101019.03;;;1.59;80.91
71476;BME280;59286;59.274;17.974;2022-11-23T04:16:56;101002.63;;;1.53;81.41
71476;BME280;59286;59.274;17.974;2022-11-23T04:19:21;101011.97;;;1.54;81.57
71476;BME280;59286;59.274;17.974;2022-11-23T04:21:47;101009.16;;;1.56;80.80
71476;BME280;59286;59.274;17.974;2022-11-23T04:24:12;100998.94;;;1.49;80.89
71476;BME280;59286;59.274;17.974;2022-11-23T04:26:39;101002.97;;;1.57;81.32
71476;BME280;59286;59.274;17.974;2022-11-23T04:29:04;101007.47;;;1.61;81.06
71476;BME280;59286;59.274;17.974;2022-11-23T04:31:30;100993.44;;;1.57;81.39
71476;BME280;59286;59.274;17.974;2022-11-23T04:33:55;100992.44;;;1.58;80.22
71476;BME280;59286;59.274;17.974;2022-11-23T04:36:21;100999.63;;;1.56;80.60
71476;BME280;59286;59.274;17.974;2022-11-23T04:38:47;100995.59;;;1.60;80.29
71476;BME280;59286;59.274;17.974;2022-11-23T04:41:12;100996.56;;;1.59;80.35
71476;BME280;59286;59.274;17.974;2022-11-23T04:43:37;100997.16;;;1.61;80.82
71476;BME280;59286;59.274;17.974;2022-11-23T04:46:03;100998.81;;;1.56;80.63
71476;BME280;59286;59.274;17.974;2022-11-23T04:48:28;100986.16;;;1.54;79.72
71476;BME280;59286;59.274;17.974;2022-11-23T04:50:54;100986.00;;;1.61;80.30
71476;BME280;59286;59.274;17.974;2022-11-23T04:53:19;100986.16;;;1.54;80.61
71476;BME280;59286;59.274;17.974;2022-11-23T04:55:45;100984.69;;;1.58;80.42
71476;BME280;59286;59.274;17.974;2022-11-23T04:58:11;100976.47;;;1.50;80.74
71476;BME280;59286;59.274;17.974;2022-11-23T05:00:36;100979.84;;;1.50;80.35
71476;BME280;59286;59.274;17.974;2022-11-23T05:03:02;100985.69;;;1.57;80.21
71476;BME280;59286;59.274;17.974;2022-11-23T05:05:27;100982.09;;;1.58;80.68
71476;BME280;59286;59.274;17.974;2022-11-23T05:07:53;100955.25;;;1.48;80.04
71476;BME280;59286;59.274;17.974;2022-11-23T05:10:18;100966.59;;;1.58;80.66
71476;BME280;59286;59.274;17.974;2022-11-23T05:12:44;100974.22;;;1.65;80.01
71476;BME280;59286;59.274;17.974;2022-11-23T05:15:11;100978.41;;;1.66;80.76
71476;BME280;59286;59.274;17.974;2022-11-23T05:17:37;100984.88;;;1.68;80.73
71476;BME280;59286;59.274;17.974;2022-11-23T05:20:02;100989.50;;;1.66;80.16
71476;BME280;59286;59.274;17.974;2022-11-23T05:22:28;100976.00;;;1.64;80.02
71476;BME280;59286;59.274;17.974;2022-11-23T05:24:53;100981.19;;;1.64;80.56
71476;BME280;59286;59.274;17.974;2022-11-23T05:27:19;100977.59;;;1.65;80.93
71476;BME280;59286;59.274;17.974;2022-11-23T05:29:44;100991.75;;;1.74;80.50
71476;BME280;59286;59.274;17.974;2022-11-23T05:32:09;100987.94;;;1.77;80.72
71476;BME280;59286;59.274;17.974;2022-11-23T05:34:35;100979.84;;;1.73;80.89
71476;BME280;59286;59.274;17.974;2022-11-23T05:37:00;100988.13;;;1.75;81.15
71476;BME280;59286;59.274;17.974;2022-11-23T05:39:25;100982.63;;;1.72;80.63
71476;BME280;59286;59.274;17.974;2022-11-23T05:41:51;100975.69;;;1.72;80.57
71476;BME280;59286;59.274;17.974;2022-11-23T05:44:16;100984.09;;;1.79;80.82
71476;BME280;59286;59.274;17.974;2022-11-23T05:46:41;100980.63;;;1.74;81.09
71476;BME280;59286;59.274;17.974;2022-11-23T05:49:08;100982.84;;;1.82;80.69
71476;BME280;59286;59.274;17.974;2022-11-23T05:51:34;100980.75;;;1.79;80.84
71476;BME280;59286;59.274;17.974;2022-11-23T05:54:00;100999.81;;;1.89;80.90
71476;BME280;59286;59.274;17.974;2022-11-23T05:56:26;101000.63;;;1.90;80.59
71476;BME280;59286;59.274;17.974;2022-11-23T05:58:54;101012.84;;;1.94;81.11
71476;BME280;59286;59.274;17.974;2022-11-23T06:01:20;101013.72;;;2.00;80.60
71476;BME280;59286;59.274;17.974;2022-11-23T06:03:45;101009.03;;;1.97;80.85
71476;BME280;59286;59.274;17.974;2022-11-23T06:06:10;101016.88;;;1.90;80.90
71476;BME280;59286;59.274;17.974;2022-11-23T06:08:36;101007.09;;;1.92;81.46
71476;BME280;59286;59.274;17.974;2022-11-23T06:11:01;100992.28;;;1.88;81.22
71476;BME280;59286;59.274;17.974;2022-11-23T06:13:27;100998.91;;;1.95;81.12
71476;BME280;59286;59.274;17.974;2022-11-23T06:15:52;100994.31;;;1.86;81.41
71476;BME280;59286;59.274;17.974;2022-11-23T06:18:17;100996.66;;;1.87;81.58
71476;BME280;59286;59.274;17.974;2022-11-23T06:20:43;100988.03;;;1.82;82.02
71476;BME280;59286;59.274;17.974;2022-11-23T06:23:08;100994.00;;;1.82;82.02
71476;BME280;59286;59.274;17.974;2022-11-23T06:25:34;101003.31;;;1.83;82.72
71476;BME280;59286;59.274;17.974;2022-11-23T06:28:00;101017.25;;;1.82;82.97
71476;BME280;59286;59.274;17.974;2022-11-23T06:30:27;101017.56;;;1.74;83.37
71476;BME280;59286;59.274;17.974;2022-11-23T06:32:53;101024.22;;;1.82;83.13
71476;BME280;59286;59.274;17.974;2022-11-23T06:35:18;101024.53;;;1.85;83.36
71476;BME280;59286;59.274;17.974;2022-11-23T06:37:46;101030.72;;;1.84;84.01
71476;BME280;59286;59.274;17.974;2022-11-23T06:40:12;101032.06;;;1.75;84.86
71476;BME280;59286;59.274;17.974;2022-11-23T06:42:37;101037.13;;;1.70;86.23
71476;BME280;59286;59.274;17.974;2022-11-23T06:45:03;101036.56;;;1.68;86.91
71476;BME280;59286;59.274;17.974;2022-11-23T06:47:28;101033.63;;;1.65;87.11
71476;BME280;59286;59.274;17.974;2022-11-23T06:49:54;101036.34;;;1.58;87.46
71476;BME280;59286;59.274;17.974;2022-11-23T06:52:19;101031.75;;;1.60;87.73
71476;BME280;59286;59.274;17.974;2022-11-23T06:54:46;101045.19;;;1.62;88.00
71476;BME280;59286;59.274;17.974;2022-11-23T06:57:11;101035.22;;;1.54;88.72
71476;BME280;59286;59.274;17.974;2022-11-23T06:59:36;101031.97;;;1.47;88.62
71476;BME280;59286;59.274;17.974;2022-11-23T07:02:02;101032.97;;;1.58;88.50
71476;BME280;59286;59.274;17.974;2022-11-23T07:04:27;101037.81;;;1.54;88.66
71476;BME280;59286;59.274;17.974;2022-11-23T07:06:52;101035.78;;;1.56;89.07
71476;BME280;59286;59.274;17.974;2022-11-23T07:09:18;101036.91;;;1.60;88.96
71476;BME280;59286;59.274;17.974;2022-11-23T07:11:43;101025.44;;;1.56;89.09
71476;BME280;59286;59.274;17.974;2022-11-23T07:14:09;101033.97;;;1.57;89.08
71476;BME280;59286;59.274;17.974;2022-11-23T07:16:35;101026.44;;;1.55;89.05
71476;BME280;59286;59.274;17.974;2022-11-23T07:19:00;101029.59;;;1.57;88.84
71476;BME280;59286;59.274;17.974;2022-11-23T07:21:26;101023.19;;;1.48;89.04
71476;BME280;59286;59.274;17.974;2022-11-23T07:23:51;101032.50;;;1.61;89.14
71476;BME280;59286;59.274;17.974;2022-11-23T07:26:16;101029.59;;;1.57;89.27
71476;BME280;59286;59.274;17.974;2022-11-23T07:28:42;101035.22;;;1.54;89.78
71476;BME280;59286;59.274;17.974;2022-11-23T07:31:07;101026.22;;;1.57;89.17
71476;BME280;59286;59.274;17.974;2022-11-23T07:33:33;101021.94;;;1.62;89.06
71476;BME280;59286;59.274;17.974;2022-11-23T07:36:02;101015.44;;;1.60;89.62
71476;BME280;59286;59.274;17.974;2022-11-23T07:38:28;100982.56;;;1.32;89.35
71476;BME280;59286;59.274;17.974;2022-11-23T07:40:54;101002.31;;;1.50;89.31
71476;BME280;59286;59.274;17.974;2022-11-23T07:43:19;101011.09;;;1.60;89.38
71476;BME280;59286;59.274;17.974;2022-11-23T07:45:44;101011.50;;;1.57;89.25
71476;BME280;59286;59.274;17.974;2022-11-23T07:48:10;101015.44;;;1.60;89.28
71476;BME280;59286;59.274;17.974;2022-11-23T07:50:37;101017.81;;;1.61;89.32
71476;BME280;59286;59.274;17.974;2022-11-23T07:53:04;101025.56;;;1.61;89.61
71476;BME280;59286;59.274;17.974;2022-11-23T07:55:30;101010.28;;;1.60;89.22
71476;BME280;59286;59.274;17.974;2022-11-23T07:57:56;101027.25;;;1.67;88.96
71476;BME280;59286;59.274;17.974;2022-11-23T08:00:23;101017.34;;;1.64;88.66
71476;BME280;59286;59.274;17.974;2022-11-23T08:02:49;101031.72;;;1.72;88.78
71476;BME280;59286;59.274;17.974;2022-11-23T08:05:15;101028.72;;;1.63;88.73
71476;BME280;59286;59.274;17.974;2022-11-23T08:07:41;101026.00;;;1.70;89.02
71476;BME280;59286;59.274;17.974;2022-11-23T08:10:07;101027.69;;;1.76;88.61
71476;BME280;59286;59.274;17.974;2022-11-23T08:12:33;101036.34;;;1.81;88.14
71476;BME280;59286;59.274;17.974;2022-11-23T08:14:59;101028.72;;;1.75;87.83
71476;BME280;59286;59.274;17.974;2022-11-23T08:17:24;101024.09;;;1.77;87.87
71476;BME280;59286;59.274;17.974;2022-11-23T08:19:49;101020.72;;;1.76;87.64
71476;BME280;59286;59.274;17.974;2022-11-23T08:22:15;101028.16;;;1.73;87.65
71476;BME280;59286;59.274;17.974;2022-11-23T08:24:41;101021.94;;;1.62;87.91
71476;BME280;59286;59.274;17.974;2022-11-23T08:27:06;101040.28;;;1.72;88.04
71476;BME280;59286;59.274;17.974;2022-11-23T08:29:31;101039.16;;;1.68;88.15
71476;BME280;59286;59.274;17.974;2022-11-23T08:31:57;101037.44;;;1.62;88.84
71476;BME280;59286;59.274;17.974;2022-11-23T08:34:22;101036.91;;;1.60;88.83
71476;BME280;59286;59.274;17.974;2022-11-23T08:36:47;101043.06;;;1.59;89.37
71476;BME280;59286;59.274;17.974;2022-11-23T08:39:13;101036.78;;;1.55;89.74
71476;BME280;59286;59.274;17.974;2022-11-23T08:41:40;101039.69;;;1.59;89.91
71476;BME280;59286;59.274;17.974;2022-11-23T08:44:05;101036.91;;;1.60;89.91
71476;BME280;59286;59.274;17.974;2022-11-23T08:46:34;101042.09;;;1.60;90.26
71476;BME280;59286;59.274;17.974;2022-11-23T08:48:59;101036.34;;;1.47;91.02
71476;BME280;59286;59.274;17.974;2022-11-23T08:51:25;101044.19;;;1.52;91.03
71476;BME280;59286;59.274;17.974;2022-11-23T08:53:51;101029.16;;;1.49;91.40
71476;BME280;59286;59.274;17.974;2022-11-23T08:56:16;101033.53;;;1.48;91.66
71476;BME280;59286;59.274;17.974;2022-11-23T08:58:43;101031.97;;;1.47;91.52
71476;BME280;59286;59.274;17.974;2022-11-23T09:01:11;101010.81;;;1.27;91.89
71476;BME280;59286;59.274;17.974;2022-11-23T09:03:37;101033.63;;;1.42;92.13
71476;BME280;59286;59.274;17.974;2022-11-23T09:06:02;101030.50;;;1.40;92.26
71476;BME280;59286;59.274;17.974;2022-11-23T09:08:28;101022.19;;;1.38;92.11
71476;BME280;59286;59.274;17.974;2022-11-23T09:10:53;100988.81;;;1.13;92.30
71476;BME280;59286;59.274;17.974;2022-11-23T09:13:19;101026.56;;;1.37;92.35
71476;BME280;59286;59.274;17.974;2022-11-23T09:15:44;101032.06;;;1.41;92.29
71476;BME280;59286;59.274;17.974;2022-11-23T09:18:10;101028.59;;;1.47;92.42
71476;BME280;59286;59.274;17.974;2022-11-23T09:20:38;101024.66;;;1.44;92.45
71476;BME280;59286;59.274;17.974;2022-11-23T09:23:04;101029.50;;;1.52;92.22
71476;BME280;59286;59.274;17.974;2022-11-23T09:25:29;101029.91;;;1.49;92.18
71476;BME280;59286;59.274;17.974;2022-11-23T09:27:58;101034.75;;;1.57;92.38
71476;BME280;59286;59.274;17.974;2022-11-23T09:30:24;101026.59;;;1.60;91.93
71476;BME280;59286;59.274;17.974;2022-11-23T09:32:49;101038.00;;;1.64;91.82
71476;BME280;59286;59.274;17.974;2022-11-23T09:35:15;101031.75;;;1.60;92.26
71476;BME280;59286;59.274;17.974;2022-11-23T09:37:40;101030.38;;;1.58;92.27
71476;BME280;59286;59.274;17.974;2022-11-23T09:40:06;101037.34;;;1.57;92.25
71476;BME280;59286;59.274;17.974;2022-11-23T09:42:37;101036.91;;;1.60;92.31
71476;BME280;59286;59.274;17.974;2022-11-23T09:45:25;101024.00;;;1.60;92.56
71476;BME280;59286;59.274;17.974;2022-11-23T09:50:46;101021.41;;;1.60;92.24
71476;BME280;59286;59.274;17.974;2022-11-23T09:53:25;101033.19;;;1.68;92.46
71476;BME280;59286;59.274;17.974;2022-11-23T09:55:55;101030.97;;;1.71;92.22
71476;BME280;59286;59.274;17.974;2022-11-23T09:58:23;101027.34;;;1.72;92.37
71476;BME280;59286;59.274;17.974;2022-11-23T10:01:11;101035.44;;;1.76;92.31
71476;BME280;59286;59.274;17.974;2022-11-23T10:03:40;101033.19;;;1.79;92.09
71476;BME280;59286;59.274;17.974;2022-11-23T10:06:26;101022.41;;;1.71;92.30
71476;BME280;59286;59.274;17.974;2022-11-23T10:15:29;101033.66;;;1.88;91.87
71476;BME280;59286;59.274;17.974;2022-11-23T10:18:07;101039.56;;;1.88;91.90
71476;BME280;59286;59.274;17.974;2022-11-23T10:21:17;101037.69;;;1.84;92.08
71476;BME280;59286;59.274;17.974;2022-11-23T10:26:16;101030.16;;;1.82;92.10
71476;BME280;59286;59.274;17.974;2022-11-23T10:28:42;101025.44;;;1.79;92.06
71476;BME280;59286;59.274;17.974;2022-11-23T10:31:13;101028.47;;;1.88;91.93
71476;BME280;59286;59.274;17.974;2022-11-23T10:36:20;101034.88;;;1.97;91.84
71476;BME280;59286;59.274;17.974;2022-11-23T10:38:49;101019.25;;;1.92;92.02
71476;BME280;59286;59.274;17.974;2022-11-23T10:41:15;101027.22;;;2.02;91.71
71476;BME280;59286;59.274;17.974;2022-11-23T10:49:06;101002.81;;;1.98;91.46
71476;BME280;59286;59.274;17.974;2022-11-23T10:51:32;101021.00;;;2.15;90.96
71476;BME280;59286;59.274;17.974;2022-11-23T10:54:17;101021.94;;;2.09;90.91
71476;BME280;59286;59.274;17.974;2022-11-23T10:56:48;101019.34;;;2.09;90.66
71476;BME280;59286;59.274;17.974;2022-11-23T10:59:40;101012.59;;;2.08;90.75
71476;BME280;59286;59.274;17.974;2022-11-23T11:02:18;101013.38;;;2.08;90.97
71476;BME280;59286;59.274;17.974;2022-11-23T11:04:45;101016.84;;;2.14;91.00
71476;BME280;59286;59.274;17.974;2022-11-23T11:07:27;100993.03;;;2.12;90.91
71476;BME280;59286;59.274;17.974;2022-11-23T11:10:00;101000.78;;;2.12;90.85
71476;BME280;59286;59.274;17.974;2022-11-23T11:12:28;101000.00;;;1.99;91.31
71476;BME280;59286;59.274;17.974;2022-11-23T11:17:35;101007.56;;;2.01;91.28
71476;BME280;59286;59.274;17.974;2022-11-23T11:22:54;101008.88;;;2.15;90.82
71476;BME280;59286;59.274;17.974;2022-11-23T11:25:34;101003.38;;;2.12;90.77
71476;BME280;59286;59.274;17.974;2022-11-23T11:28:02;101011.47;;;2.15;90.65
71476;BME280;59286;59.274;17.974;2022-11-23T11:30:45;101010.88;;;2.25;90.77
71476;BME280;59286;59.274;17.974;2022-11-23T11:33:25;101007.97;;;2.21;90.33
71476;BME280;59286;59.274;17.974;2022-11-23T11:35:54;101001.59;;;2.12;90.62
71476;BME280;59286;59.274;17.974;2022-11-23T11:38:24;101006.97;;;2.11;91.19
71476;BME280;59286;59.274;17.974;2022-11-23T11:40:54;101004.94;;;2.13;90.91
71476;BME280;59286;59.274;17.974;2022-11-23T11:43:28;101013.38;;;2.20;90.94
71476;BME280;59286;59.274;17.974;2022-11-23T11:45:59;101003.59;;;2.10;91.31
71476;BME280;59286;59.274;17.974;2022-11-23T11:48:36;101004.97;;;2.01;91.40
71476;BME280;59286;59.274;17.974;2022-11-23T11:51:06;100999.69;;;1.96;91.24
71476;BME280;59286;59.274;17.974;2022-11-23T11:53:43;101000.47;;;1.96;90.98
71476;BME280;59286;59.274;17.974;2022-11-23T11:56:17;100982.75;;;1.77;91.10
71476;BME280;59286;59.274;17.974;2022-11-23T11:59:11;101005.75;;;2.02;91.03
71476;BME280;59286;59.274;17.974;2022-11-23T12:04:18;101004.28;;;2.06;90.71
71476;BME280;59286;59.274;17.974;2022-11-23T12:06:52;100992.81;;;2.02;90.16
71476;BME280;59286;59.274;17.974;2022-11-23T12:09:22;101000.81;;;2.00;90.04
71476;BME280;59286;59.274;17.974;2022-11-23T12:11:49;100998.66;;;2.09;89.68
71476;BME280;59286;59.274;17.974;2022-11-23T12:14:15;100991.69;;;2.09;89.44
71476;BME280;59286;59.274;17.974;2022-11-23T12:16:49;101004.81;;;2.19;89.61
71476;BME280;59286;59.274;17.974;2022-11-23T12:19:41;101009.66;;;2.16;88.90
71476;BME280;59286;59.274;17.974;2022-11-23T12:22:32;101019.88;;;2.22;88.89
71476;BME280;59286;59.274;17.974;2022-11-23T12:25:21;101022.00;;;2.25;88.40
71476;BME280;59286;59.274;17.974;2022-11-23T12:39:18;101008.84;;;2.27;88.07
71476;BME280;59286;59.274;17.974;2022-11-23T12:45:11;101001.13;;;2.15;87.45
71476;BME280;59286;59.274;17.974;2022-11-23T12:55:48;101001.03;;;1.98;87.97
71476;BME280;59286;59.274;17.974;2022-11-23T12:58:28;101003.63;;;1.98;88.04
71476;BME280;59286;59.274;17.974;2022-11-23T13:01:09;100994.75;;;1.94;88.74
71476;BME280;59286;59.274;17.974;2022-11-23T13:09:47;101000.63;;;1.90;89.60
71476;BME280;59286;59.274;17.974;2022-11-23T13:13:01;100994.19;;;1.92;89.66
71476;BME280;59286;59.274;17.974;2022-11-23T13:21:43;100997.13;;;1.84;90.04
71476;BME280;59286;59.274;17.974;2022-11-23T13:24:38;100999.25;;;1.87;90.12
71476;BME280;59286;59.274;17.974;2022-11-23T13:40:34;101004.31;;;1.82;89.82
71476;BME280;59286;59.274;17.974;2022-11-23T13:45:32;101010.25;;;1.83;89.40
71476;BME280;59286;59.274;17.974;2022-11-23T13:48:04;101011.06;;;1.83;89.07
71476;BME280;59286;59.274;17.974;2022-11-23T13:50:31;101002.06;;;1.74;88.94
71476;BME280;59286;59.274;17.974;2022-11-23T13:52:57;101003.19;;;1.78;88.99
71476;BME280;59286;59.274;17.974;2022-11-23T13:55:33;101008.25;;;1.85;88.92
71476;BME280;59286;59.274;17.974;2022-11-23T14:00:58;100999.94;;;1.83;88.89
71476;BME280;59286;59.274;17.974;2022-11-23T14:14:23;101003.88;;;1.85;88.40
71476;BME280;59286;59.274;17.974;2022-11-23T14:19:33;101007.34;;;1.91;88.49
71476;BME280;59286;59.274;17.974;2022-11-23T14:31:08;101015.66;;;1.81;88.11
71476;BME280;59286;59.274;17.974;2022-11-23T14:33:47;101011.53;;;1.80;87.95
71476;BME280;59286;59.274;17.974;2022-11-23T14:41:49;101013.06;;;1.81;87.00
71476;BME280;59286;59.274;17.974;2022-11-23T14:44:22;101023.75;;;1.85;87.02
71476;BME280;59286;59.274;17.974;2022-11-23T14:47:08;101017.13;;;1.89;87.19
71476;BME280;59286;59.274;17.974;2022-11-23T14:49:34;101018.47;;;1.91;87.32